Time;durP1;ratioP1;P1;durP2;ratioP2;P2;SDS_P1;SDS_P2;PMS_P1;PMS_P2;Temp;Humidity;BMP_temperature;BMP_pressure;BME280_temperature;BME280_humidity;BME280_pressure;Samples;Min_cycle;Max_cycle;Signal;HPM_P1;HPM_P2
2023/06/16 00:02:00;;;;;;;13.13;7.72;;;22.00;86.80;;;;;;5111874;28;20031;-73
2023/06/16 00:04:27;;;;;;;16.02;8.30;;;22.00;87.30;;;;;;5111566;28;20023;-73
2023/06/16 00:06:53;;;;;;;14.63;8.60;;;21.90;86.70;;;;;;5111787;28;20062;-72
2023/06/16 00:09:22;;;;;;;12.75;8.82;;;22.00;86.70;;;;;;5112002;28;20067;-71
2023/06/16 00:11:48;;;;;;;14.65;8.25;;;22.00;86.70;;;;;;5111568;28;20102;-73
2023/06/16 00:14:13;;;;;;;12.23;8.68;;;22.00;87.00;;;;;;5093490;28;20123;-73
2023/06/16 00:16:39;;;;;;;12.05;8.13;;;22.00;86.90;;;;;;5111916;28;20088;-73
2023/06/16 00:19:05;;;;;;;14.02;8.60;;;21.90;87.10;;;;;;5111976;28;20043;-73
2023/06/16 00:21:37;;;;;;;10.75;8.32;;;21.90;87.20;;;;;;5111634;28;20369;-73
2023/06/16 00:24:04;;;;;;;9.75;8.35;;;22.00;87.10;;;;;;5111708;28;20603;-73
2023/06/16 00:26:30;;;;;;;12.02;8.27;;;21.90;86.30;;;;;;5111443;28;20432;-74
2023/06/16 00:28:56;;;;;;;13.55;8.63;;;21.90;86.20;;;;;;5111997;28;20980;-73
2023/06/16 00:31:22;;;;;;;14.65;8.90;;;21.80;85.50;;;;;;5111960;28;20035;-74
2023/06/16 00:33:47;;;;;;;11.27;8.27;;;21.80;85.20;;;;;;5112184;28;20104;-73
2023/06/16 00:36:13;;;;;;;14.60;8.38;;;21.80;85.40;;;;;;5115495;28;20032;-72
2023/06/16 00:38:39;;;;;;;14.35;9.15;;;21.80;84.90;;;;;;5114785;28;20040;-73
2023/06/16 00:41:04;;;;;;;12.23;8.70;;;21.80;84.50;;;;;;5115424;28;20031;-73
2023/06/16 00:43:30;;;;;;;9.93;8.35;;;21.70;84.50;;;;;;5115218;28;20450;-68
2023/06/16 00:45:57;;;;;;;16.63;8.98;;;21.70;84.30;;;;;;5115401;28;20143;-74
2023/06/16 00:48:22;;;;;;;15.13;8.30;;;21.70;84.00;;;;;;5114907;28;20036;-72
2023/06/16 00:50:49;;;;;;;11.77;8.57;;;21.70;83.80;;;;;;5115166;28;20039;-73
2023/06/16 00:53:16;;;;;;;11.85;9.50;;;21.60;83.40;;;;;;5114859;28;20541;-74
2023/06/16 00:55:42;;;;;;;13.25;8.48;;;21.60;83.20;;;;;;5114373;28;20051;-70
2023/06/16 00:58:07;;;;;;;15.13;9.43;;;21.50;83.40;;;;;;5114864;28;20031;-72
2023/06/16 01:00:36;;;;;;;13.20;8.68;;;21.50;83.20;;;;;;5114819;28;20535;-72
2023/06/16 01:03:05;;;;;;;11.60;8.55;;;21.50;83.30;;;;;;5115019;28;20133;-75
2023/06/16 01:05:32;;;;;;;11.02;9.27;;;21.50;83.30;;;;;;5115311;28;20035;-73
2023/06/16 01:08:03;;;;;;;17.60;9.10;;;21.40;83.10;;;;;;5114715;28;20202;-73
2023/06/16 01:10:38;;;;;;;13.40;9.48;;;21.40;83.50;;;;;;5114553;28;20040;-73
2023/06/16 01:13:24;;;;;;;13.98;9.05;;;21.40;83.00;;;;;;5114606;28;20036;-72
2023/06/16 01:15:53;;;;;;;14.38;9.38;;;21.40;83.30;;;;;;5114618;28;20098;-73
2023/06/16 01:18:23;;;;;;;12.95;9.15;;;21.40;82.70;;;;;;5114330;28;20102;-73
2023/06/16 01:20:57;;;;;;;14.20;9.07;;;21.40;82.60;;;;;;5114331;28;20119;-72
2023/06/16 01:23:29;;;;;;;13.55;9.07;;;21.30;82.90;;;;;;5114691;28;20047;-73
2023/06/16 01:26:01;;;;;;;14.38;9.30;;;21.30;82.50;;;;;;5114618;28;20092;-73
2023/06/16 01:28:31;;;;;;;12.85;9.10;;;21.20;82.50;;;;;;5114747;28;20044;-73
2023/06/16 01:30:59;;;;;;;13.27;9.32;;;21.20;82.50;;;;;;5114648;28;20085;-72
2023/06/16 01:33:27;;;;;;;13.02;9.27;;;21.20;82.60;;;;;;5114006;28;20151;-73
2023/06/16 01:35:54;;;;;;;11.05;9.20;;;21.20;82.40;;;;;;5114505;28;20073;-73
2023/06/16 01:38:22;;;;;;;12.60;9.35;;;21.20;82.50;;;;;;5113441;28;20043;-73
2023/06/16 13:54:26;;;;;;;5.10;2.78;;;30.00;38.50;;;;;;5089300;28;21062;-77
2023/06/16 13:56:52;;;;;;;6.05;2.92;;;29.90;39.10;;;;;;5091869;28;20125;-75
2023/06/16 13:59:18;;;;;;;12.93;3.13;;;30.00;39.90;;;;;;5093053;28;20485;-76
2023/06/16 14:01:44;;;;;;;7.13;3.05;;;29.90;39.80;;;;;;5089689;28;20056;-76
2023/06/16 14:04:10;;;;;;;5.72;3.28;;;30.00;40.20;;;;;;5093485;28;20032;-74
2023/06/16 14:06:35;;;;;;;8.20;3.30;;;30.00;40.30;;;;;;5093290;28;20078;-77
2023/06/16 14:09:01;;;;;;;5.15;3.42;;;30.00;40.30;;;;;;5093689;28;20135;-75
2023/06/16 14:11:27;;;;;;;5.30;3.47;;;30.00;40.50;;;;;;5088021;28;20030;-76
2023/06/16 14:13:52;;;;;;;6.78;3.58;;;30.00;40.10;;;;;;5074802;28;20040;-76
2023/06/16 14:16:18;;;;;;;7.82;3.40;;;30.00;40.00;;;;;;5092928;28;20546;-75
2023/06/16 14:18:45;;;;;;;5.88;3.20;;;30.00;39.60;;;;;;5092992;28;20059;-76
2023/06/16 14:21:11;;;;;;;4.78;3.10;;;30.00;39.70;;;;;;5086157;28;20468;-75
2023/06/16 14:23:36;;;;;;;6.88;3.45;;;30.10;39.80;;;;;;5092615;28;20036;-76
2023/06/16 14:26:02;;;;;;;4.55;3.13;;;30.10;39.60;;;;;;5092574;28;20024;-77
2023/06/16 14:28:27;;;;;;;5.13;3.13;;;30.10;39.20;;;;;;5092375;28;20039;-76
2023/06/16 14:30:54;;;;;;;6.75;3.00;;;30.20;39.10;;;;;;5087539;28;20404;-76
2023/06/16 14:33:20;;;;;;;4.32;3.05;;;30.20;39.40;;;;;;5092127;28;20044;-76
2023/06/16 14:35:46;;;;;;;5.68;3.15;;;30.20;39.30;;;;;;5092324;28;20086;-76
2023/06/16 14:38:11;;;;;;;8.23;3.30;;;30.30;39.30;;;;;;5092591;28;20040;-75
2023/06/16 14:40:37;;;;;;;8.32;3.40;;;30.30;38.60;;;;;;5087068;28;20115;-76
2023/06/16 14:43:03;;;;;;;8.98;3.30;;;30.20;38.50;;;;;;5091797;28;20038;-75
2023/06/16 14:45:28;;;;;;;7.22;3.00;;;30.20;38.10;;;;;;5092136;28;20028;-75
2023/06/16 14:47:54;;;;;;;6.00;3.50;;;30.10;38.20;;;;;;5092124;28;20071;-79
2023/06/16 14:50:22;;;;;;;4.85;3.22;;;30.10;38.00;;;;;;5086653;28;20128;-76
2023/06/16 14:52:47;;;;;;;5.13;2.88;;;30.00;38.00;;;;;;5069901;28;20409;-76
2023/06/16 14:55:13;;;;;;;9.07;3.67;;;30.10;38.40;;;;;;5072208;28;20120;-75
2023/06/16 14:57:39;;;;;;;5.80;3.58;;;30.10;38.50;;;;;;5071701;28;20040;-75
2023/06/16 15:00:06;;;;;;;6.07;3.30;;;30.10;38.50;;;;;;5078588;28;20035;-75
2023/06/16 15:02:31;;;;;;;5.90;3.13;;;30.20;38.70;;;;;;5089898;28;20044;-78
2023/06/16 15:04:57;;;;;;;6.57;3.22;;;30.20;38.50;;;;;;5092327;28;20028;-81
2023/06/16 15:07:22;;;;;;;6.07;3.10;;;30.10;38.50;;;;;;5091833;28;20051;-75
2023/06/16 15:09:48;;;;;;;5.45;3.33;;;30.00;38.00;;;;;;5067505;28;20136;-75
2023/06/16 15:12:14;;;;;;;4.60;3.13;;;30.10;38.30;;;;;;5068664;28;20040;-76
2023/06/16 15:14:39;;;;;;;6.57;3.08;;;30.00;38.10;;;;;;5071869;28;20059;-75
2023/06/16 15:17:05;;;;;;;9.05;3.50;;;29.90;37.80;;;;;;5071990;28;20078;-73
2023/06/16 15:19:31;;;;;;;11.50;3.50;;;30.00;38.40;;;;;;5071099;28;20032;-73
2023/06/16 15:21:57;;;;;;;7.63;3.40;;;29.90;38.50;;;;;;5067900;28;20201;-73
2023/06/16 15:24:23;;;;;;;6.85;3.33;;;30.00;38.80;;;;;;5071951;28;20036;-74
2023/06/16 15:26:50;;;;;;;7.25;3.72;;;30.00;38.70;;;;;;5071511;28;20029;-74
2023/06/16 15:29:16;;;;;;;8.38;3.50;;;30.00;38.70;;;;;;5070676;28;20036;-74
2023/06/16 15:31:42;;;;;;;7.72;3.20;;;30.00;38.30;;;;;;5086783;28;20040;-77
2023/06/16 15:34:08;;;;;;;4.57;2.97;;;30.00;38.30;;;;;;5088026;28;20036;-73
2023/06/16 15:36:34;;;;;;;6.68;4.00;;;30.00;38.60;;;;;;5091366;28;20393;-73
2023/06/16 15:38:59;;;;;;;6.28;3.85;;;30.00;38.40;;;;;;5091681;28;20036;-74
2023/06/16 15:41:25;;;;;;;7.13;3.53;;;30.00;38.50;;;;;;5083020;28;20115;-73
2023/06/16 15:43:51;;;;;;;8.73;3.75;;;30.00;38.50;;;;;;5091389;28;20061;-73
2023/06/16 15:46:16;;;;;;;6.22;3.90;;;30.00;38.50;;;;;;5078502;28;20056;-73
2023/06/16 15:48:45;;;;;;;6.05;3.22;;;30.00;39.30;;;;;;5087799;28;20040;-74
2023/06/16 15:51:11;;;;;;;5.00;3.30;;;30.00;38.30;;;;;;5082655;28;20096;-74
2023/06/16 15:53:38;;;;;;;4.82;3.15;;;29.90;38.40;;;;;;5090838;28;20409;-72
2023/06/16 15:56:04;;;;;;;5.03;3.30;;;29.90;38.20;;;;;;5091279;28;20044;-73
2023/06/16 15:58:30;;;;;;;6.28;3.40;;;30.00;38.30;;;;;;5091325;28;20066;-73
2023/06/16 16:00:56;;;;;;;5.30;3.40;;;30.00;38.60;;;;;;5086312;28;20082;-74
2023/06/16 16:03:21;;;;;;;8.57;3.25;;;30.00;38.60;;;;;;5090664;28;20481;-77
2023/06/16 16:05:47;;;;;;;6.05;3.42;;;30.00;38.80;;;;;;5093500;28;20093;-71
2023/06/16 16:08:13;;;;;;;4.40;2.90;;;29.90;38.90;;;;;;5095321;28;20028;-71
2023/06/16 16:10:39;;;;;;;7.28;3.50;;;29.80;38.80;;;;;;5087062;28;20038;-72
2023/06/16 16:13:06;;;;;;;6.32;3.42;;;29.80;38.80;;;;;;5074047;28;20058;-71
2023/06/16 16:15:32;;;;;;;7.50;3.65;;;29.80;38.60;;;;;;5074519;28;20381;-70
2023/06/16 16:17:58;;;;;;;8.25;4.00;;;29.80;38.70;;;;;;5079874;28;20335;-74
2023/06/16 16:20:24;;;;;;;8.30;3.70;;;29.80;38.70;;;;;;5088077;28;20040;-74
2023/06/16 16:22:50;;;;;;;7.18;3.75;;;29.80;38.70;;;;;;5094805;28;20047;-73
2023/06/16 16:25:15;;;;;;;6.88;3.55;;;29.70;39.00;;;;;;5094598;28;20541;-73
2023/06/16 16:27:41;;;;;;;6.47;3.40;;;29.70;39.20;;;;;;5094666;28;20059;-74
2023/06/16 16:30:07;;;;;;;6.93;3.35;;;29.70;39.20;;;;;;5093226;28;20485;-73
2023/06/16 16:32:33;;;;;;;8.88;3.22;;;29.70;39.00;;;;;;5093896;28;20108;-74
2023/06/16 16:34:59;;;;;;;8.25;3.85;;;29.60;39.20;;;;;;5082006;28;20445;-73
2023/06/16 16:37:24;;;;;;;7.40;4.10;;;29.60;39.20;;;;;;5094603;28;20530;-73
2023/06/16 16:39:50;;;;;;;8.10;3.95;;;29.50;39.30;;;;;;5092436;28;20488;-75
2023/06/16 16:42:16;;;;;;;8.25;3.85;;;29.60;39.50;;;;;;5094655;28;20341;-75
2023/06/16 16:44:42;;;;;;;6.70;3.50;;;29.50;39.40;;;;;;5094875;28;20495;-75
2023/06/16 16:47:08;;;;;;;8.18;3.50;;;29.50;39.50;;;;;;5094498;28;20040;-75
2023/06/16 16:49:33;;;;;;;8.18;3.63;;;29.50;39.50;;;;;;5094635;28;20373;-74
2023/06/16 16:52:00;;;;;;;6.00;3.05;;;29.50;39.60;;;;;;5095500;28;20135;-76
2023/06/16 16:54:25;;;;;;;9.15;3.88;;;29.50;39.50;;;;;;5077861;28;20051;-76
2023/06/16 16:56:51;;;;;;;7.85;3.95;;;29.50;39.60;;;;;;5094757;28;20040;-77
2023/06/16 16:59:19;;;;;;;8.80;3.60;;;29.40;39.70;;;;;;5094226;28;20036;-75
2023/06/16 17:01:45;;;;;;;11.52;4.32;;;29.40;40.60;;;;;;5094576;28;20500;-76
2023/06/16 17:04:12;;;;;;;11.20;3.97;;;29.40;40.10;;;;;;5094317;28;20115;-76
2023/06/16 17:06:37;;;;;;;7.43;3.50;;;29.30;40.30;;;;;;5094203;28;20088;-75
2023/06/16 17:09:03;;;;;;;5.82;3.78;;;29.30;40.20;;;;;;5094178;28;20488;-76
2023/06/16 17:11:30;;;;;;;6.32;3.75;;;29.20;40.40;;;;;;5094324;28;20103;-76
2023/06/16 17:13:55;;;;;;;6.47;3.70;;;29.00;40.90;;;;;;5094153;28;20071;-75
2023/06/16 17:16:22;;;;;;;5.75;3.58;;;29.00;41.00;;;;;;5094227;28;20119;-75
2023/06/16 17:18:50;;;;;;;7.63;3.75;;;28.90;40.90;;;;;;5094299;28;20044;-77
2023/06/16 17:21:15;;;;;;;5.05;3.15;;;28.80;40.60;;;;;;5094119;28;20035;-77
2023/06/16 17:23:43;;;;;;;5.75;3.85;;;28.80;40.80;;;;;;5094157;28;20036;-75
2023/06/16 17:26:09;;;;;;;6.20;3.50;;;28.70;40.80;;;;;;5093963;28;20020;-75
2023/06/16 17:28:35;;;;;;;5.75;3.30;;;28.70;41.10;;;;;;5094291;28;20129;-76
2023/06/16 17:31:00;;;;;;;7.30;4.13;;;28.70;41.00;;;;;;5094008;28;20135;-76
2023/06/16 17:33:26;;;;;;;8.60;4.45;;;28.60;41.30;;;;;;5075581;28;20067;-76
2023/06/16 17:35:53;;;;;;;7.38;3.83;;;28.60;41.40;;;;;;5093766;28;20039;-77
2023/06/16 17:38:19;;;;;;;4.78;3.40;;;28.60;41.60;;;;;;5093540;28;20032;-74
2023/06/16 17:40:45;;;;;;;7.32;3.53;;;28.60;42.00;;;;;;5075390;28;20126;-77
2023/06/16 17:43:10;;;;;;;5.82;3.42;;;28.50;41.50;;;;;;5093741;28;20040;-77
2023/06/16 17:45:36;;;;;;;6.05;4.05;;;28.50;41.60;;;;;;5093635;28;20086;-77
2023/06/16 17:48:02;;;;;;;5.00;3.10;;;28.40;41.70;;;;;;5075348;28;20116;-75
2023/06/16 17:50:27;;;;;;;7.78;3.97;;;28.40;42.00;;;;;;5093457;28;20337;-76
2023/06/16 17:52:53;;;;;;;7.85;3.75;;;28.30;42.70;;;;;;5093462;28;20040;-76
2023/06/16 17:55:19;;;;;;;7.38;3.67;;;28.30;42.20;;;;;;5092956;28;20203;-75
2023/06/16 17:57:44;;;;;;;6.60;3.78;;;28.30;42.40;;;;;;5093300;28;20500;-78
2023/06/16 18:00:10;;;;;;;9.82;3.70;;;28.20;42.40;;;;;;5093532;28;20055;-76
2023/06/16 18:02:36;;;;;;;8.10;3.80;;;28.20;42.20;;;;;;5093379;28;20032;-74
2023/06/16 18:05:02;;;;;;;10.50;3.80;;;28.20;42.50;;;;;;5092958;28;20138;-75
2023/06/16 18:07:28;;;;;;;5.22;3.33;;;28.10;42.30;;;;;;5093351;28;20036;-78
2023/06/16 18:09:54;;;;;;;6.00;3.35;;;28.10;42.60;;;;;;5093671;28;20039;-76
2023/06/16 18:12:21;;;;;;;9.85;4.05;;;28.10;42.40;;;;;;5075278;28;20385;-77
2023/06/16 18:14:47;;;;;;;8.75;3.72;;;28.00;42.40;;;;;;5093436;28;20078;-77
2023/06/16 18:17:13;;;;;;;7.15;3.60;;;28.00;42.90;;;;;;5093297;28;20085;-77
2023/06/16 18:19:38;;;;;;;6.85;3.50;;;28.00;42.40;;;;;;5093015;28;20109;-76
2023/06/16 18:22:04;;;;;;;8.30;3.70;;;28.00;42.80;;;;;;5093434;28;20105;-78
2023/06/16 18:24:30;;;;;;;5.57;3.60;;;27.90;42.20;;;;;;5074650;28;20028;-76
2023/06/16 18:26:56;;;;;;;8.20;3.63;;;27.90;42.60;;;;;;5092911;28;20025;-76
2023/06/16 18:29:22;;;;;;;9.73;3.97;;;27.90;42.60;;;;;;5092430;28;20078;-75
2023/06/16 18:31:48;;;;;;;5.57;3.83;;;27.80;42.60;;;;;;5092669;28;20430;-76
2023/06/16 18:34:14;;;;;;;6.53;3.92;;;27.80;42.70;;;;;;5092538;28;20040;-76
2023/06/16 18:36:40;;;;;;;10.75;4.03;;;27.80;42.90;;;;;;5093351;28;20455;-75
2023/06/16 18:39:15;;;;;;;9.90;4.07;;;27.80;43.20;;;;;;5093070;28;20043;-76
2023/06/16 18:41:43;;;;;;;7.55;3.85;;;27.70;41.80;;;;;;5092794;28;20468;-76
2023/06/16 18:44:09;;;;;;;10.68;4.25;;;27.70;43.10;;;;;;5092681;28;20068;-77
2023/06/16 18:46:35;;;;;;;7.10;3.80;;;27.70;43.00;;;;;;5092724;28;20024;-77
2023/06/16 18:49:01;;;;;;;5.20;3.70;;;27.70;42.90;;;;;;5092774;28;20036;-76
2023/06/16 18:51:27;;;;;;;7.18;4.20;;;27.60;42.90;;;;;;5092482;28;20035;-75
2023/06/16 18:53:53;;;;;;;7.18;4.18;;;27.60;42.70;;;;;;5092727;28;20040;-75
2023/06/16 18:56:19;;;;;;;7.63;4.72;;;27.60;43.50;;;;;;5092184;28;20047;-77
2023/06/16 18:58:45;;;;;;;7.35;4.35;;;27.50;43.90;;;;;;5092420;28;20484;-76
2023/06/16 19:01:12;;;;;;;10.88;4.75;;;27.40;45.40;;;;;;5092486;28;20035;-77
2023/06/16 19:03:38;;;;;;;9.15;4.45;;;27.30;46.10;;;;;;5092610;28;20119;-73
2023/06/16 19:06:05;;;;;;;9.57;4.93;;;27.20;46.70;;;;;;5092470;28;20333;-78
2023/06/16 19:08:31;;;;;;;8.20;4.55;;;27.10;47.50;;;;;;5092566;28;20047;-77
2023/06/16 19:10:57;;;;;;;8.70;5.68;;;27.00;48.10;;;;;;5092412;28;20056;-76
2023/06/16 19:13:23;;;;;;;7.07;4.80;;;26.90;48.20;;;;;;5092285;28;20115;-77
2023/06/16 19:15:49;;;;;;;9.50;4.43;;;26.80;48.70;;;;;;5092540;28;20435;-77
2023/06/16 19:18:15;;;;;;;8.20;5.10;;;26.70;49.20;;;;;;5092339;28;20032;-78
2023/06/16 19:20:41;;;;;;;12.40;5.05;;;26.70;49.50;;;;;;5092351;28;20048;-77
2023/06/16 19:23:07;;;;;;;7.18;4.43;;;26.60;50.20;;;;;;5092498;28;20082;-77
2023/06/16 19:25:33;;;;;;;13.10;4.88;;;26.50;50.20;;;;;;5092410;28;20032;-76
2023/06/16 19:27:58;;;;;;;9.27;4.60;;;26.50;50.20;;;;;;5092893;28;20085;-76
2023/06/16 19:30:24;;;;;;;7.60;4.60;;;26.40;50.60;;;;;;5092388;28;20028;-78
2023/06/16 19:32:50;;;;;;;8.70;5.00;;;26.30;50.40;;;;;;5092906;28;20109;-78
2023/06/16 19:35:15;;;;;;;8.80;4.57;;;26.30;50.30;;;;;;5092055;28;20054;-76
2023/06/16 19:37:41;;;;;;;8.50;4.82;;;26.30;50.70;;;;;;5092268;28;20042;-77
2023/06/16 19:40:10;;;;;;;10.13;4.75;;;26.20;51.00;;;;;;5091219;28;20024;-77
2023/06/16 19:42:36;;;;;;;7.20;4.70;;;26.10;51.30;;;;;;5092415;28;20093;-77
2023/06/16 19:45:02;;;;;;;9.60;4.78;;;26.10;50.90;;;;;;5092000;28;20115;-77
2023/06/16 19:47:28;;;;;;;8.65;4.97;;;26.00;50.80;;;;;;5092157;28;20028;-77
2023/06/16 19:49:54;;;;;;;6.53;4.25;;;26.00;51.10;;;;;;5092221;28;20042;-77
2023/06/16 19:52:20;;;;;;;8.38;4.40;;;25.90;51.00;;;;;;5092167;28;20040;-76
